• Join FlightAware (Why Join?)
  • Login
  • US Flag 
11:20AM EDT


 

Airport Tracker/Info


-or-


 

Live Flight TrackerFlight Track Log ✈ ASQ5958 ✈ 01-Jul-2013 ✈ KORD - KDSM

Flight Track Log - Related Links

Times and Time Zones

All times are in EDT time to prevent confusion due to time zone crossing. See the ASQ5958 flight status page for this flight to view local times or setup timezone preferences in your user account.

Time Position Orientation Groundspeed Altitude Reporting Facility
EDT Latitude Longitude Course Direction KTS MPH feet Rate Location/Type
01:15PM 42.0167 -87.9667 340° North 193 222 2,900  Level Chicago TRACON
01:16PM 42.0833 -88.0000 340° North 254 292 4,900 2,100 Climbing Chicago TRACON
01:17PM 42.1500 -88.0500 331° Northwest 267 307 7,100 2,220 Climbing Chicago TRACON
01:18PM 42.1603 -88.1139 282° West 286 329 8,700 2,160 Climbing Chicago Center
01:19PM 42.1264 -88.2217 247° West 312 359 10,900 1,620 Climbing Chicago Center
01:20PM 42.0900 -88.3353 247° West 334 384 12,100 1,140 Climbing Chicago Center
01:21PM 42.0492 -88.4608 246° West 363 418 13,300 1,440 Climbing Chicago Center
01:23PM 41.9589 -88.7503 247° West 386 444 16,600 1,380 Climbing Chicago Center
01:24PM 41.9164 -88.8847 247° West 394 453 17,700 960 Climbing Chicago Center
01:25PM 41.9017 -89.0331 262° West 406 467 18,600 900 Climbing Chicago Center
01:26PM 41.8844 -89.1825 261° West 408 470 19,600 1,200 Climbing Chicago Center
01:27PM 41.8675 -89.3664 263° West 415 478 21,100 1,440 Climbing Chicago Center
01:28PM 41.8525 -89.5192 263° West 417 480 22,600 1,320 Climbing Chicago Center
01:29PM 41.8381 -89.6689 263° West 409 471 23,900 420 Climbing Chicago Center
01:31PM 41.8309 -89.7934 266° West  Level FlightAware Approximate
01:31PM 41.8119 -89.9892 266° West 448 516 24,000  Level Chicago Center
01:33PM 41.8036 -90.1906 267° West 462 532 24,000  Level Chicago Center
01:34PM 41.7964 -90.3650 267° West 471 542 24,000  Level Chicago Center
01:35PM 41.7847 -90.5475 265° West 463 533 24,000  Level Chicago Center
01:36PM 41.7744 -90.7050 265° West 463 533 24,000  Level Chicago Center
01:37PM 41.7625 -90.8750 265° West 462 532 24,000  Level Chicago Center
01:38PM 41.7486 -91.0753 265° West 454 522 24,000  Level Chicago Center
01:39PM 41.7358 -91.2428 264° West 456 525 24,000  Level Chicago Center
01:40PM 41.7253 -91.4083 265° West 452 520 24,000  Level Chicago Center
01:41PM 41.7119 -91.5772 264° West 455 524 24,000  Level Chicago Center
01:42PM 41.6989 -91.7422 264° West 452 520 24,000  Level Chicago Center
01:43PM 41.6858 -91.9089 264° West 452 520 24,000 -780 Level Chicago Center
01:44PM 41.6706 -92.1061 264° West 448 516 22,500 -1,500 Descending Chicago Center
01:45PM 41.6575 -92.2683 264° West 442 509 21,000 -1,800 Descending Chicago Center
01:46PM 41.6442 -92.4275 264° West 435 501 18,800 -2,160 Descending Chicago Center
01:47PM 41.6314 -92.5842 264° West 429 494 16,600 -2,220 Descending Chicago Center
01:48PM 41.6189 -92.7308 264° West 406 467 14,300 -2,160 Descending Chicago Center
01:49PM 41.5947 -92.9042 259° West 389 448 12,000 -1,620 Descending Minneapolis Center
01:50PM 41.5686 -93.0250 254° West 357 411 10,900 -1,140 Descending Minneapolis Center
01:51PM 41.5531 -93.1203 258° West 313 360 9,900 -1,140 Descending Minneapolis Center
01:52PM 41.5303 -93.2311 255° West 310 357 8,900 -1,320 Descending Minneapolis Center
01:53PM 41.5069 -93.3389 254° West 305 351 7,300 -1,560 Descending Minneapolis Center
01:54PM 41.4875 -93.4408 256° West 290 334 5,800 -1,320 Descending Minneapolis Center
01:55PM 41.4547 -93.5706 251° West 260 299 4,300 -1,200 Descending Minneapolis Center
01:56PM 41.4489 -93.6197 261° West 240 276 3,500 -1,200 Descending Minneapolis Center